KMCEKSAC

Guest
Details From KMCE - MERCED MUNI MACREADY FLD
To KSAC - Sacramento Executive
Flight Number -
Tags generated
Created
Modified
Stats Distance 87 nm / 161 km
Max Altitude 3,700 ft / 1,128 m
Waypoints 3
Social Downloads 2
Likes 0
Share VATSIM

Download

Looking for another format? Having issues loading an existing format? Contact us
Advertisement - Login to hide

Notes

Basic altitude profile: - Ascent Rate: 2500ft/min - Ascent Speed: 250kts - Cruise Altitude: 35000ft - Cruise Speed: 420kts - Descent Rate: 1500ft/min - Descent Speed: 250kts

Route

KMCE GALTS KSAC

ID Type Via Altitude Latitude Longitude Leg Dist Tot Dist Heading (true) Name
O KMCE APT - 0 ft / 0 m 37.28473˚ -120.51389˚ - 0 nm - MERCED MUNI MACREADY FLD
GALTS FIX - 3,700 ft / 1,128 m 38.27056˚ -121.29354˚ 69 nm 69 nm 328° / 328° -
O KSAC APT - 0 ft / 0 m 38.51264˚ -121.49319˚ 17 nm 87 nm 327° / 327° Sacramento Executive

Altitude Profile

Advertisement - Login to hide

KMCE

Details ICAO KMCE (MCE)
Name MERCED MUNI MACREADY FLD
Region United States
Timezone America/Los_Angeles (UTC-7.0)
Stats Elevation 156 ft / 48 m (AMSL)
Location 37.284728° -120.513887°
Runways 1
Magnetic Variation 13.044° E

METAR

KMCE 201553Z AUTO VRB05KT 10SM CLR 16/09 A2994 RMK AO2 SLP138 T01560089

Decode

TAF

TAF KMCE 201120Z 2012/2112 32008KT P6SM SCT200

Decode

Departure Runways

ID Width Length Bearing (true) Bearing (mag) Surface Threshold Offset Overrun Length
12 151 ft / 46 m 5,908 ft / 1,801 m 138.60° 125.56° Asphalt 0 ft / 0 m 0 ft / 0 m
30 151 ft / 46 m 5,908 ft / 1,801 m 318.60° 305.56° Asphalt 0 ft / 0 m 0 ft / 0 m

KSAC

Details ICAO KSAC (SAC)
Name Sacramento Executive
Region United States
Timezone America/Los_Angeles (UTC-7.0)
Stats Elevation 24 ft / 7 m (AMSL)
Location 38.512642° -121.493193°
Runways 3
Magnetic Variation 13.474° E

METAR

KSAC 201612Z 20007KT 10SM SCT017 13/09 A2995 RMK AO2 T01330094

Decode

TAF

TAF KSAC 201120Z 2012/2112 20008G17KT P6SM BKN015 FM201900 21009KT P6SM SCT250

Decode

Destination Runways

ID Width Length Bearing (true) Bearing (mag) Surface Threshold Offset Overrun Length
02 151 ft / 46 m 5,507 ft / 1,679 m 33.00° 19.53° Asphalt 0 ft / 0 m 0 ft / 0 m
12 98 ft / 30 m 3,834 ft / 1,169 m 133.23° 119.76° Asphalt 0 ft / 0 m 699 ft / 213 m
16 151 ft / 46 m 3,492 ft / 1,064 m 179.61° 166.14° Asphalt 0 ft / 0 m 0 ft / 0 m
20 151 ft / 46 m 5,507 ft / 1,679 m 213.01° 199.54° Asphalt 0 ft / 0 m 0 ft / 0 m
30 98 ft / 30 m 3,834 ft / 1,169 m 313.24° 299.77° Asphalt 0 ft / 0 m 0 ft / 0 m
34 151 ft / 46 m 3,492 ft / 1,064 m 359.61° 346.14° Asphalt 0 ft / 0 m 0 ft / 0 m

Approach Navaids

Runway Type Ident Frequency Range Bearing (true) Bearing (mag) Slope Elevation
02 Localiser ISAC 110.30 MHz 18 nm / 33 km 33.01° 19.53° - 23 ft / 7 m (AMSL)
02 Glidescope ISAC 110.30 MHz 10 nm / 19 km 33.01° 19.53° 3.00° 18 ft / 5 m (AMSL)